createdAt,value
2023-01-06T00:01:56.031Z,13.17
2023-01-06T00:04:22.923Z,13.23
2023-01-06T00:06:49.831Z,13.30
2023-01-06T00:09:16.812Z,17.23
2023-01-06T00:11:44.188Z,14.83
2023-01-06T00:14:11.043Z,12.93
2023-01-06T00:16:38.383Z,14.50
2023-01-06T00:19:06.058Z,16.83
2023-01-06T00:21:35.640Z,17.63
2023-01-06T00:24:03.796Z,11.93
2023-01-06T00:26:30.879Z,15.17
2023-01-06T00:28:58.315Z,16.60
2023-01-06T00:31:25.337Z,20.43
2023-01-06T00:33:53.693Z,21.10
2023-01-06T00:36:22.821Z,16.17
2023-01-06T00:38:51.996Z,18.30
2023-01-06T00:41:37.847Z,16.20
2023-01-06T00:44:05.769Z,15.47
2023-01-06T00:46:34.915Z,16.40
2023-01-06T00:49:06.283Z,18.77
2023-01-06T00:51:54.722Z,18.87
2023-01-06T00:59:56.884Z,17.23
2023-01-06T01:02:34.527Z,15.60
2023-01-06T01:05:13.567Z,14.43
2023-01-06T01:15:54.528Z,13.20
2023-01-06T01:21:07.461Z,15.13
2023-01-06T01:23:35.392Z,12.07
2023-01-06T01:26:10.178Z,15.90
2023-01-06T01:28:40.197Z,14.57
2023-01-06T01:31:17.022Z,13.07
2023-01-06T01:33:44.733Z,12.37
2023-01-06T01:39:05.857Z,14.80
2023-01-06T01:41:34.994Z,11.63
2023-01-06T01:44:23.321Z,15.30
2023-01-06T01:55:06.683Z,13.63
2023-01-06T01:57:59.657Z,10.87
2023-01-06T02:00:31.190Z,13.07
2023-01-06T02:02:58.762Z,13.00
2023-01-06T02:05:28.861Z,11.37
2023-01-06T02:07:58.707Z,11.97
2023-01-06T02:10:26.619Z,11.70
2023-01-06T02:13:01.995Z,12.40
2023-01-06T02:15:37.279Z,12.00
2023-01-06T02:18:28.943Z,11.03
2023-01-06T02:21:17.299Z,10.47
2023-01-06T02:24:10.864Z,9.10
2023-01-06T02:27:04.139Z,8.97
2023-01-06T02:42:38.949Z,9.57
2023-01-06T02:45:25.598Z,10.63
2023-01-06T02:51:32.000Z,11.13
2023-01-06T02:57:37.250Z,12.80
2023-01-06T03:03:06.657Z,14.70
2023-01-06T03:17:10.078Z,15.97
2023-01-06T03:19:41.464Z,18.83
2023-01-06T03:22:25.184Z,20.10
2023-01-06T03:25:02.688Z,19.53
2023-01-06T03:45:59.262Z,21.80
2023-01-06T03:51:49.133Z,23.33
2023-01-06T04:14:50.793Z,27.30
2023-01-06T04:36:22.621Z,25.00
2023-01-06T04:41:36.884Z,25.20
2023-01-06T04:49:35.275Z,25.67
2023-01-06T04:54:45.171Z,28.77
2023-01-06T06:42:02.293Z,19.70
2023-01-06T06:44:28.973Z,18.73
2023-01-06T06:46:55.657Z,20.70
2023-01-06T06:49:22.376Z,20.17
2023-01-06T06:51:49.203Z,21.40
2023-01-06T06:54:15.994Z,20.20
2023-01-06T06:56:42.829Z,20.43
2023-01-06T06:59:09.592Z,21.93
2023-01-06T07:01:36.397Z,21.27
2023-01-06T07:04:03.153Z,22.97
2023-01-06T07:06:30.027Z,21.47
2023-01-06T07:08:57.282Z,21.70
2023-01-06T07:11:24.417Z,23.27
2023-01-06T07:13:51.242Z,21.30
2023-01-06T07:16:20.061Z,21.37
2023-01-06T07:18:47.420Z,21.93
2023-01-06T07:21:14.207Z,21.70
2023-01-06T07:23:50.689Z,20.83
2023-01-06T07:26:17.475Z,21.60
2023-01-06T07:28:44.754Z,20.30
2023-01-06T07:31:14.122Z,20.77
2023-01-06T07:33:43.200Z,20.47
2023-01-06T07:36:17.996Z,20.20
2023-01-06T07:38:44.845Z,20.00
2023-01-06T07:41:14.635Z,19.67
2023-01-06T07:43:41.430Z,19.47
2023-01-06T07:46:08.201Z,18.23
2023-01-06T07:48:37.127Z,17.23
2023-01-06T07:51:04.084Z,17.60
2023-01-06T07:53:31.026Z,17.73
2023-01-06T07:55:58.055Z,17.30
2023-01-06T07:58:24.782Z,16.37
2023-01-06T08:00:52.065Z,19.20
2023-01-06T08:03:18.831Z,16.63
2023-01-06T08:05:45.505Z,16.07
2023-01-06T08:08:12.596Z,15.80
2023-01-06T08:10:42.684Z,14.83
2023-01-06T08:13:10.051Z,15.60
2023-01-06T08:15:38.065Z,13.43
2023-01-06T08:18:05.141Z,13.93
2023-01-06T08:20:34.250Z,13.67
2023-01-06T08:23:02.935Z,14.97
2023-01-06T08:25:29.751Z,12.97
2023-01-06T08:27:59.625Z,13.23
2023-01-06T08:30:27.053Z,12.93
2023-01-06T08:32:57.647Z,12.83
2023-01-06T08:35:24.563Z,12.03
2023-01-06T08:37:51.422Z,11.40
2023-01-06T08:40:19.511Z,11.20
2023-01-06T08:42:46.402Z,10.47
2023-01-06T08:45:13.307Z,10.60
2023-01-06T08:47:40.051Z,9.10
2023-01-06T08:50:07.146Z,8.40
2023-01-06T08:52:33.967Z,10.23
2023-01-06T08:55:00.759Z,8.07
2023-01-06T08:57:27.425Z,7.93
2023-01-06T08:59:54.225Z,7.17
2023-01-06T09:02:21.085Z,8.53
2023-01-06T09:04:48.927Z,7.20
2023-01-06T09:07:15.685Z,11.83
2023-01-06T09:09:42.499Z,11.00
2023-01-06T09:12:09.307Z,16.97
2023-01-06T09:14:36.422Z,6.57
2023-01-06T09:17:03.598Z,13.67
2023-01-06T09:19:30.443Z,12.23
2023-01-06T09:21:58.270Z,8.73
2023-01-06T09:24:26.012Z,6.40
2023-01-06T09:26:52.914Z,6.63
2023-01-06T09:29:21.490Z,7.07
2023-01-06T09:31:48.338Z,7.07
2023-01-06T09:34:15.478Z,5.80
2023-01-06T09:36:42.427Z,5.00
2023-01-06T09:39:09.280Z,5.43
2023-01-06T09:41:53.130Z,7.53
2023-01-06T09:44:30.636Z,5.20
2023-01-06T09:46:59.836Z,6.40
2023-01-06T09:49:48.602Z,4.83
2023-01-06T09:52:24.541Z,5.30
2023-01-06T09:55:05.518Z,4.33
2023-01-06T09:57:58.050Z,6.30
2023-01-06T10:00:36.989Z,4.93
2023-01-06T10:03:05.159Z,6.27
2023-01-06T10:05:53.517Z,6.47
2023-01-06T10:09:03.318Z,5.13
2023-01-06T10:11:51.464Z,7.57
2023-01-06T10:14:33.696Z,5.00
2023-01-06T10:17:15.660Z,4.10
2023-01-06T10:19:42.391Z,3.90
2023-01-06T10:22:35.458Z,3.87
2023-01-06T10:25:19.934Z,4.40
2023-01-06T10:27:56.115Z,4.10
2023-01-06T10:30:30.815Z,4.97
2023-01-06T10:33:01.622Z,4.73
2023-01-06T10:35:29.647Z,5.77
2023-01-06T10:37:59.413Z,4.40
2023-01-06T10:40:30.830Z,2.80
2023-01-06T10:43:17.553Z,11.40
2023-01-06T10:45:48.781Z,4.17
2023-01-06T10:48:20.503Z,9.00
2023-01-06T10:50:47.971Z,7.37
2023-01-06T10:53:16.349Z,5.60
2023-01-06T10:55:43.159Z,7.60
2023-01-06T10:58:42.970Z,2.80
2023-01-06T11:01:23.594Z,2.07
2023-01-06T11:04:15.589Z,2.10
2023-01-06T11:07:15.930Z,2.73
2023-01-06T11:09:47.778Z,1.83
2023-01-06T11:12:20.877Z,1.40
2023-01-06T11:14:59.047Z,3.03
2023-01-06T11:17:26.860Z,2.57
2023-01-06T11:20:28.514Z,4.33
2023-01-06T11:22:55.376Z,3.20
2023-01-06T11:25:32.572Z,1.47
2023-01-06T11:28:21.483Z,2.67
2023-01-06T11:31:07.174Z,2.00
2023-01-06T11:33:37.965Z,3.17
2023-01-06T11:36:15.481Z,3.37
2023-01-06T11:39:00.490Z,3.67
2023-01-06T11:41:42.178Z,9.43
2023-01-06T11:44:33.155Z,4.30
2023-01-06T11:47:08.714Z,2.83
2023-01-06T11:49:45.382Z,5.67
2023-01-06T11:52:26.343Z,4.93
2023-01-06T11:55:09.118Z,3.97
2023-01-06T11:57:55.317Z,3.40
2023-01-06T12:00:59.394Z,5.43
2023-01-06T12:03:42.509Z,7.37
2023-01-06T12:06:41.010Z,5.13
2023-01-06T12:09:29.849Z,4.13
2023-01-06T12:12:02.312Z,5.67
2023-01-06T12:21:02.789Z,6.70
2023-01-06T12:23:40.542Z,6.93
2023-01-06T12:26:16.366Z,5.43
2023-01-06T12:28:47.482Z,7.97
2023-01-06T12:31:17.816Z,4.80
2023-01-06T12:34:06.392Z,8.07
2023-01-06T12:36:53.787Z,5.90
2023-01-06T12:39:36.215Z,6.33
2023-01-06T12:42:33.245Z,5.40
2023-01-06T12:45:35.260Z,6.87
2023-01-06T12:48:24.940Z,7.57
2023-01-06T12:50:56.994Z,6.67
2023-01-06T12:53:56.161Z,3.83
2023-01-06T12:56:38.793Z,7.43
2023-01-06T12:59:24.154Z,5.83
2023-01-06T13:01:59.819Z,7.03
2023-01-06T13:05:19.181Z,3.70
2023-01-06T13:08:16.596Z,3.63
2023-01-06T13:10:53.212Z,5.40
2023-01-06T13:13:37.522Z,5.57
2023-01-06T13:16:35.257Z,11.37
2023-01-06T13:19:45.502Z,6.87
2023-01-06T13:22:18.907Z,6.40
2023-01-06T13:25:15.140Z,4.00
2023-01-06T13:28:16.969Z,8.40
2023-01-06T13:31:04.010Z,7.13
2023-01-06T13:33:58.722Z,6.87
2023-01-06T13:36:35.693Z,10.70
2023-01-06T13:39:14.239Z,8.70
2023-01-06T16:16:41.185Z,8.97
2023-01-06T16:19:22.278Z,59.37
2023-01-06T16:21:54.944Z,26.60
2023-01-06T16:24:29.648Z,14.80
2023-01-06T16:27:06.891Z,12.40
2023-01-06T16:29:36.976Z,18.53
2023-01-06T16:32:31.222Z,14.87
2023-01-06T16:35:06.239Z,13.90
2023-01-06T16:37:34.898Z,10.33
2023-01-06T16:40:05.078Z,9.33
2023-01-06T16:42:41.798Z,10.83
2023-01-06T16:45:32.658Z,8.80
2023-01-06T16:48:12.404Z,7.13
2023-01-06T16:50:41.008Z,8.10
2023-01-06T16:53:15.939Z,9.20
2023-01-06T16:55:43.899Z,9.20
2023-01-06T16:58:40.727Z,9.73
2023-01-06T17:01:20.412Z,7.60
2023-01-06T17:03:58.753Z,11.30
2023-01-06T17:06:29.497Z,10.80
2023-01-06T17:09:00.956Z,11.77
2023-01-06T17:11:32.110Z,10.53
2023-01-06T17:14:05.576Z,13.77
2023-01-06T17:16:36.678Z,11.37
2023-01-06T17:19:28.549Z,10.97
2023-01-06T17:22:03.190Z,9.97
2023-01-06T17:24:31.814Z,6.20
2023-01-06T17:27:14.136Z,9.40
2023-01-06T17:29:41.658Z,11.83
2023-01-06T17:32:26.252Z,7.37
2023-01-06T17:34:54.122Z,6.20
2023-01-06T17:37:28.888Z,8.93
2023-01-06T17:39:57.334Z,6.33
2023-01-06T17:42:26.345Z,8.70
2023-01-06T17:44:58.700Z,6.73
2023-01-06T17:47:35.076Z,8.00
2023-01-06T17:50:26.494Z,7.90
2023-01-06T17:53:30.437Z,9.20
2023-01-06T17:56:00.959Z,10.23
2023-01-06T17:58:31.603Z,6.73
2023-01-06T18:01:00.554Z,7.43
2023-01-06T18:03:38.073Z,8.67
2023-01-06T18:06:18.952Z,14.80
2023-01-06T18:08:51.486Z,7.60
2023-01-06T18:11:25.177Z,6.77
2023-01-06T18:13:53.209Z,7.13
2023-01-06T18:16:32.514Z,8.73
2023-01-06T18:19:07.635Z,8.10
2023-01-06T18:21:39.651Z,9.07
2023-01-06T18:24:22.892Z,8.57
2023-01-06T18:27:03.220Z,8.57
2023-01-06T18:29:31.959Z,8.63
2023-01-06T18:32:22.223Z,8.90
2023-01-06T18:34:53.696Z,6.67
2023-01-06T18:37:36.112Z,9.77
2023-01-06T18:40:11.655Z,8.70
2023-01-06T18:42:45.065Z,10.17
2023-01-06T18:45:14.778Z,7.93
2023-01-06T18:47:43.498Z,7.43
2023-01-06T18:50:23.662Z,9.73
2023-01-06T18:53:07.295Z,7.63
2023-01-06T18:55:51.858Z,10.50
2023-01-06T18:58:39.464Z,8.93
2023-01-06T19:01:18.261Z,9.00
2023-01-06T19:04:04.218Z,10.23
2023-01-06T19:06:46.151Z,13.43
2023-01-06T19:09:19.074Z,9.17
2023-01-06T19:11:47.536Z,9.87
2023-01-06T19:14:22.624Z,8.27
2023-01-06T19:16:55.657Z,6.97
2023-01-06T19:19:29.526Z,8.33
2023-01-06T19:22:15.036Z,10.60
2023-01-06T19:24:47.360Z,8.90
2023-01-06T19:27:33.048Z,14.17
2023-01-06T19:30:31.493Z,9.70
2023-01-06T19:33:39.341Z,13.33
2023-01-06T19:36:06.436Z,16.20
2023-01-06T19:38:40.877Z,16.47
2023-01-06T19:41:15.852Z,20.23
2023-01-06T19:43:50.842Z,20.10
2023-01-06T19:46:31.702Z,15.00
2023-01-06T19:49:00.641Z,12.40
2023-01-06T19:51:34.425Z,13.53
2023-01-06T19:54:26.950Z,9.17
2023-01-06T19:56:56.685Z,7.07
2023-01-06T19:59:35.611Z,5.83
2023-01-06T20:02:08.958Z,3.60
2023-01-06T20:04:37.139Z,5.00
2023-01-06T20:07:06.119Z,8.57
2023-01-06T20:09:36.145Z,5.57
2023-01-06T20:12:03.310Z,5.20
2023-01-06T20:14:30.587Z,8.13
2023-01-06T20:16:58.202Z,5.43
2023-01-06T20:19:25.257Z,9.60
2023-01-06T20:21:55.084Z,6.37
2023-01-06T20:24:22.403Z,5.73
2023-01-06T20:26:49.528Z,5.33
2023-01-06T20:29:16.793Z,6.47
2023-01-06T20:31:45.863Z,5.77
2023-01-06T20:34:14.297Z,3.83
2023-01-06T20:36:43.277Z,7.67
2023-01-06T20:39:15.620Z,7.47
2023-01-06T20:41:42.784Z,6.57
2023-01-06T20:44:09.912Z,5.37
2023-01-06T20:46:37.985Z,7.27
2023-01-06T20:49:05.292Z,7.60
2023-01-06T20:51:39.672Z,6.73
2023-01-06T20:56:57.297Z,7.43
2023-01-06T20:59:28.177Z,9.37
2023-01-06T21:01:55.934Z,3.83
2023-01-06T21:04:23.240Z,4.90
2023-01-06T21:06:50.298Z,5.20
2023-01-06T21:09:19.529Z,9.33
2023-01-06T21:11:49.183Z,5.20
2023-01-06T21:14:18.740Z,7.37
2023-01-06T21:16:46.807Z,5.20
2023-01-06T21:19:14.519Z,5.27
2023-01-06T21:22:06.994Z,4.73
2023-01-06T21:24:34.393Z,7.47
2023-01-06T21:27:02.007Z,4.53
2023-01-06T21:29:29.200Z,6.07
2023-01-06T21:31:56.569Z,5.57
2023-01-06T21:34:24.515Z,6.43
2023-01-06T21:36:51.884Z,9.57
2023-01-06T21:39:19.009Z,8.60
2023-01-06T21:42:04.575Z,4.73
2023-01-06T21:44:31.905Z,10.60
2023-01-06T21:47:03.193Z,8.20
2023-01-06T21:49:31.205Z,8.87
2023-01-06T21:52:01.032Z,9.43
2023-01-06T21:54:28.958Z,8.47
2023-01-06T21:56:56.627Z,7.30
2023-01-06T21:59:23.984Z,8.10
2023-01-06T22:01:51.256Z,7.20
2023-01-06T22:04:18.436Z,6.23
2023-01-06T22:06:45.889Z,4.33
2023-01-06T22:09:17.321Z,7.73
2023-01-06T22:11:45.520Z,5.70
2023-01-06T22:14:14.583Z,5.33
2023-01-06T22:16:42.459Z,7.23
2023-01-06T22:19:12.903Z,8.23
2023-01-06T22:21:41.901Z,4.63
2023-01-06T22:24:10.829Z,6.43
2023-01-06T22:26:38.137Z,5.43
2023-01-06T22:29:05.321Z,7.33
2023-01-06T22:31:32.661Z,7.53
2023-01-06T22:33:59.944Z,6.40
2023-01-06T22:36:27.261Z,5.93
2023-01-06T22:38:54.400Z,5.67
2023-01-06T22:41:21.583Z,6.60
2023-01-06T22:43:52.396Z,5.23
2023-01-06T22:46:19.806Z,6.07
2023-01-06T22:48:47.295Z,4.80
2023-01-06T22:51:14.421Z,4.17
2023-01-06T22:53:41.608Z,6.20
2023-01-06T22:56:11.687Z,5.57
2023-01-06T22:58:40.440Z,7.27
2023-01-06T23:01:08.804Z,9.03
2023-01-06T23:03:37.740Z,6.03
2023-01-06T23:06:07.890Z,4.80
2023-01-06T23:08:40.607Z,6.73
2023-01-06T23:11:16.746Z,7.37
2023-01-06T23:13:45.042Z,5.30
2023-01-06T23:16:15.659Z,6.23
2023-01-06T23:18:45.394Z,8.77
2023-01-06T23:21:21.374Z,7.50
2023-01-06T23:23:49.716Z,8.07
2023-01-06T23:26:21.934Z,5.47
2023-01-06T23:28:49.423Z,5.80
2023-01-06T23:31:21.026Z,7.07
2023-01-06T23:33:51.190Z,7.40
2023-01-06T23:36:19.868Z,5.07
2023-01-06T23:38:47.663Z,9.53
2023-01-06T23:44:18.275Z,6.60
2023-01-06T23:46:46.573Z,9.63
2023-01-06T23:49:17.415Z,5.70
2023-01-06T23:51:44.952Z,6.60
2023-01-06T23:54:13.032Z,6.67
2023-01-06T23:56:40.874Z,7.23
2023-01-06T23:59:10.786Z,7.17
